createdAt,value
2018-05-04T00:00:57.287Z,55.10
2018-05-04T00:01:57.162Z,53.80
2018-05-04T00:02:57.032Z,53.70
2018-05-04T00:03:56.919Z,53.30
2018-05-04T00:04:56.782Z,54.60
2018-05-04T00:05:56.662Z,52.70
2018-05-04T00:06:56.531Z,54.90
2018-05-04T00:07:56.404Z,54.20
2018-05-04T00:08:56.277Z,55.20
2018-05-04T00:09:56.152Z,55.40
2018-05-04T00:10:56.027Z,57.70
2018-05-04T00:11:55.901Z,58.30
2018-05-04T00:12:55.779Z,57.60
2018-05-04T00:13:55.650Z,57.00
2018-05-04T00:14:55.528Z,57.90
2018-05-04T00:15:55.398Z,55.60
2018-05-04T00:16:55.275Z,56.30
2018-05-04T00:17:55.149Z,54.70
2018-05-04T00:18:55.027Z,56.50
2018-05-04T00:19:54.897Z,56.50
2018-05-04T00:20:54.770Z,55.70
2018-05-04T00:21:54.652Z,57.60
2018-05-04T00:22:54.522Z,55.20
2018-05-04T00:23:54.394Z,54.00
2018-05-04T00:24:54.268Z,55.20
2018-05-04T00:25:54.147Z,55.40
2018-05-04T00:26:54.018Z,56.80
2018-05-04T00:27:53.893Z,57.40
2018-05-04T00:28:53.768Z,56.20
2018-05-04T00:29:53.645Z,54.30
2018-05-04T00:30:53.515Z,54.60
2018-05-04T00:31:53.392Z,54.70
2018-05-04T00:32:53.264Z,54.80
2018-05-04T00:33:53.139Z,55.60
2018-05-04T00:34:53.014Z,54.40
2018-05-04T00:35:52.888Z,55.60
2018-05-04T00:36:52.765Z,54.90
2018-05-04T00:37:55.305Z,54.20
2018-05-04T00:38:52.514Z,52.70
2018-05-04T00:39:52.388Z,53.20
2018-05-04T00:40:52.262Z,52.80
2018-05-04T00:41:52.140Z,52.50
2018-05-04T00:42:52.015Z,53.20
2018-05-04T00:43:51.888Z,54.40
2018-05-04T00:44:51.760Z,53.70
2018-05-04T00:45:51.631Z,54.40
2018-05-04T00:46:51.510Z,54.60
2018-05-04T00:47:51.381Z,53.30
2018-05-04T00:48:51.256Z,54.90
2018-05-04T00:49:51.173Z,55.10
2018-05-04T00:50:51.007Z,54.20
2018-05-04T00:51:50.878Z,53.60
2018-05-04T00:52:50.754Z,53.80
2018-05-04T00:53:50.632Z,52.20
2018-05-04T00:54:50.502Z,53.30
2018-05-04T00:55:50.377Z,54.10
2018-05-04T00:56:50.251Z,55.70
2018-05-04T00:57:50.127Z,54.40
2018-05-04T00:58:50.002Z,54.40
2018-05-04T00:59:49.874Z,55.00
2018-05-04T01:00:49.752Z,56.10
2018-05-04T01:01:49.627Z,55.70
2018-05-04T01:02:49.497Z,55.30
2018-05-04T01:03:49.372Z,56.30
2018-05-04T01:04:49.247Z,56.90
2018-05-04T01:05:49.123Z,57.20
2018-05-04T01:06:48.997Z,57.40
2018-05-04T01:07:48.870Z,57.10
2018-05-04T01:08:48.745Z,58.10
2018-05-04T01:09:48.619Z,56.70
2018-05-04T01:10:48.496Z,56.30
2018-05-04T01:11:48.372Z,54.70
2018-05-04T01:12:48.244Z,54.80
2018-05-04T01:13:48.121Z,55.30
2018-05-04T01:14:47.996Z,57.00
2018-05-04T01:15:47.869Z,57.60
2018-05-04T01:16:47.748Z,54.20
2018-05-04T01:17:47.623Z,54.50
2018-05-04T01:18:47.492Z,53.50
2018-05-04T01:19:47.365Z,53.60
2018-05-04T01:20:47.241Z,54.00
2018-05-04T01:21:47.116Z,54.80
2018-05-04T01:22:46.993Z,55.40
2018-05-04T01:23:46.867Z,57.10
2018-05-04T01:24:46.738Z,57.20
2018-05-04T01:25:46.612Z,57.60
2018-05-04T01:26:46.490Z,57.20
2018-05-04T01:27:46.360Z,57.20
2018-05-04T01:28:46.235Z,59.50
2018-05-04T01:29:46.109Z,57.40
2018-05-04T01:30:45.985Z,58.00
2018-05-04T01:31:45.859Z,58.60
2018-05-04T01:32:45.731Z,58.60
2018-05-04T01:33:45.607Z,57.60
2018-05-04T01:34:45.483Z,57.50
2018-05-04T01:35:45.364Z,59.20
2018-05-04T01:36:45.231Z,59.40
2018-05-04T01:37:45.103Z,57.90
2018-05-04T01:38:44.979Z,58.70
2018-05-04T01:39:44.858Z,57.80
2018-05-04T01:40:44.728Z,57.60
2018-05-04T01:41:44.603Z,58.10
2018-05-04T01:42:44.477Z,56.50
2018-05-04T01:43:44.350Z,59.10
2018-05-04T01:44:44.225Z,57.60
2018-05-04T01:45:44.100Z,57.50
2018-05-04T01:46:43.979Z,56.60
2018-05-04T01:47:43.847Z,57.20
2018-05-04T01:48:43.723Z,56.70
2018-05-04T01:49:43.600Z,56.10
2018-05-04T01:50:43.471Z,55.40
2018-05-04T01:51:43.346Z,56.30
2018-05-04T01:52:43.222Z,55.30
2018-05-04T01:53:43.096Z,59.10
2018-05-04T01:54:42.972Z,59.00
2018-05-04T01:55:42.843Z,59.50
2018-05-04T01:56:42.722Z,57.50
2018-05-04T01:57:42.594Z,56.90
2018-05-04T01:58:42.469Z,58.20
2018-05-04T01:59:42.344Z,57.20
2018-05-04T02:00:42.219Z,56.50
2018-05-04T02:01:42.091Z,55.60
2018-05-04T02:02:41.969Z,57.00
2018-05-04T02:03:41.842Z,56.20
2018-05-04T02:04:41.721Z,56.60
2018-05-04T02:05:41.590Z,57.80
2018-05-04T02:06:41.467Z,54.80
2018-05-04T02:07:41.343Z,54.90
2018-05-04T02:08:41.214Z,55.90
2018-05-04T02:09:41.089Z,56.10
2018-05-04T02:10:40.965Z,56.30
2018-05-04T02:11:40.839Z,57.90
2018-05-04T02:12:40.712Z,57.50
2018-05-04T02:13:40.588Z,57.80
2018-05-04T02:14:40.463Z,55.00
2018-05-04T02:15:40.335Z,55.50
2018-05-04T02:16:40.210Z,56.70
2018-05-04T02:17:40.085Z,57.00
2018-05-04T02:18:39.958Z,57.50
2018-05-04T02:19:39.832Z,58.60
2018-05-04T02:20:39.710Z,57.20
2018-05-04T02:21:39.584Z,57.60
2018-05-04T02:22:39.460Z,58.90
2018-05-04T02:23:39.331Z,58.60
2018-05-04T02:24:39.207Z,59.50
2018-05-04T02:25:39.081Z,58.10
2018-05-04T02:26:38.955Z,59.60
2018-05-04T02:27:38.829Z,60.00
2018-05-04T02:28:38.706Z,63.70
2018-05-04T02:29:38.577Z,61.80
2018-05-04T02:30:38.451Z,61.30
2018-05-04T02:31:38.325Z,62.40
2018-05-04T02:32:38.203Z,61.10
2018-05-04T02:33:38.077Z,61.10
2018-05-04T02:34:37.949Z,59.90
2018-05-04T02:35:37.826Z,60.30
2018-05-04T02:36:37.698Z,58.70
2018-05-04T02:37:37.574Z,59.00
2018-05-04T02:38:37.451Z,60.40
2018-05-04T02:39:37.325Z,60.50
2018-05-04T02:40:37.199Z,60.80
2018-05-04T02:41:37.072Z,60.50
2018-05-04T02:42:36.950Z,60.90
2018-05-04T02:43:36.822Z,60.60
2018-05-04T02:44:36.693Z,61.50
2018-05-04T02:45:36.570Z,60.80
2018-05-04T02:46:36.444Z,61.30
2018-05-04T02:47:36.319Z,61.50
2018-05-04T02:48:36.190Z,62.10
2018-05-04T02:49:36.069Z,60.90
2018-05-04T02:50:35.942Z,63.00
2018-05-04T02:51:35.813Z,61.70
2018-05-04T02:52:35.688Z,62.20
2018-05-04T02:53:35.562Z,62.50
2018-05-04T02:54:35.437Z,62.00
2018-05-04T02:55:35.313Z,61.10
2018-05-04T02:56:35.186Z,61.50
2018-05-04T02:57:35.059Z,62.80
2018-05-04T02:58:34.935Z,63.30
2018-05-04T02:59:34.809Z,60.90
2018-05-04T03:00:34.681Z,64.40
2018-05-04T03:01:34.556Z,64.30
2018-05-04T03:02:34.434Z,67.30
2018-05-04T03:03:34.315Z,65.90
2018-05-04T03:04:34.181Z,68.90
2018-05-04T03:05:34.055Z,68.80
2018-05-04T03:06:33.928Z,68.30
2018-05-04T03:07:33.803Z,67.50
2018-05-04T03:08:33.677Z,69.60
2018-05-04T03:09:33.552Z,70.90
2018-05-04T03:10:33.426Z,70.90
2018-05-04T03:11:33.303Z,69.20
2018-05-04T03:12:33.176Z,68.80
2018-05-04T03:13:33.048Z,69.30
2018-05-04T03:14:32.922Z,68.20
2018-05-04T03:15:32.800Z,69.40
2018-05-04T03:16:32.732Z,67.80
2018-05-04T03:17:32.544Z,67.20
2018-05-04T03:18:32.418Z,66.20
2018-05-04T03:19:32.291Z,67.40
2018-05-04T03:20:32.167Z,67.40
2018-05-04T03:21:32.043Z,65.20
2018-05-04T03:22:31.917Z,68.30
2018-05-04T03:23:31.789Z,68.20
2018-05-04T03:24:31.663Z,68.10
2018-05-04T03:25:31.538Z,69.20
2018-05-04T03:26:31.412Z,69.30
2018-05-04T03:27:31.293Z,67.40
2018-05-04T03:28:31.157Z,68.00
2018-05-04T03:29:31.036Z,66.50
2018-05-04T03:30:30.913Z,69.30
2018-05-04T03:31:30.781Z,67.00
2018-05-04T03:32:30.657Z,65.90
2018-05-04T03:33:30.531Z,64.90
2018-05-04T03:34:30.403Z,64.60
2018-05-04T03:35:30.280Z,65.40
2018-05-04T03:36:30.155Z,65.20
2018-05-04T03:37:30.029Z,63.00
2018-05-04T03:38:29.914Z,63.10
2018-05-04T03:39:29.775Z,63.10
2018-05-04T03:40:29.649Z,65.10
2018-05-04T03:41:29.527Z,64.80
2018-05-04T03:42:29.401Z,64.20
2018-05-04T03:43:29.271Z,67.70
2018-05-04T03:44:29.150Z,68.40
2018-05-04T03:45:29.022Z,67.30
2018-05-04T03:46:28.897Z,68.70
2018-05-04T03:47:28.773Z,67.00
2018-05-04T03:48:28.646Z,70.10
2018-05-04T03:49:28.521Z,70.70
2018-05-04T03:50:28.394Z,67.30
2018-05-04T03:51:28.273Z,64.40
2018-05-04T03:52:28.148Z,63.10
2018-05-04T03:53:28.019Z,65.20
2018-05-04T03:54:27.890Z,65.10
2018-05-04T03:55:27.765Z,64.40
2018-05-04T03:56:27.640Z,67.30
2018-05-04T03:57:27.514Z,67.60
2018-05-04T03:58:27.389Z,66.10
2018-05-04T03:59:27.259Z,68.30
2018-05-04T04:00:27.139Z,66.80
2018-05-04T04:01:27.011Z,63.90
2018-05-04T04:02:26.932Z,67.20
2018-05-04T04:03:26.759Z,70.60
2018-05-04T04:04:26.635Z,74.00
2018-05-04T04:05:26.509Z,69.80
2018-05-04T04:06:26.385Z,69.50
2018-05-04T04:07:26.256Z,70.50
2018-05-04T04:08:26.133Z,69.20
2018-05-04T04:09:26.005Z,68.20
2018-05-04T04:10:25.880Z,70.10
2018-05-04T04:11:25.753Z,69.20
2018-05-04T04:12:25.631Z,68.70
2018-05-04T04:13:25.504Z,68.50
2018-05-04T04:14:25.376Z,69.00
2018-05-04T04:15:25.252Z,72.10
2018-05-04T04:16:25.123Z,75.00
2018-05-04T04:17:24.998Z,76.30
2018-05-04T04:18:24.874Z,76.20
2018-05-04T04:19:24.758Z,77.60
2018-05-04T04:20:24.625Z,72.80
2018-05-04T04:21:24.498Z,74.40
2018-05-04T04:22:24.369Z,74.40
2018-05-04T04:23:24.283Z,78.60
2018-05-04T04:24:24.118Z,76.90
2018-05-04T04:25:23.993Z,74.30
2018-05-04T04:26:23.867Z,76.60
2018-05-04T04:27:23.740Z,76.80
2018-05-04T04:28:23.617Z,77.10
2018-05-04T04:29:23.490Z,73.10
2018-05-04T04:30:23.367Z,76.50
2018-05-04T04:31:23.240Z,75.50
2018-05-04T04:32:23.113Z,75.90
2018-05-04T04:33:22.988Z,74.90
2018-05-04T04:34:22.866Z,73.60
2018-05-04T04:35:22.735Z,74.50
2018-05-04T04:36:22.611Z,69.20
2018-05-04T04:37:22.485Z,71.00
2018-05-04T04:38:22.359Z,70.90
2018-05-04T04:39:22.232Z,67.30
2018-05-04T04:40:22.106Z,69.40
2018-05-04T04:41:21.980Z,68.10
2018-05-04T04:42:21.852Z,72.10
2018-05-04T04:43:21.726Z,66.30
2018-05-04T04:44:21.602Z,70.40
2018-05-04T04:45:21.479Z,72.80
2018-05-04T04:46:21.353Z,74.40
2018-05-04T04:47:21.228Z,72.40
2018-05-04T04:48:21.096Z,71.10
2018-05-04T04:49:20.974Z,68.60
2018-05-04T04:50:20.850Z,73.40
2018-05-04T04:51:20.722Z,72.00
2018-05-04T04:52:20.599Z,69.90
2018-05-04T04:53:20.468Z,71.00
2018-05-04T04:54:20.343Z,71.70
2018-05-04T04:55:20.218Z,70.10
2018-05-04T04:56:20.096Z,71.90
2018-05-04T04:57:19.970Z,70.90
2018-05-04T04:58:19.843Z,75.40
2018-05-04T04:59:19.718Z,74.50
2018-05-04T05:00:19.593Z,76.80
2018-05-04T05:01:19.467Z,75.80
2018-05-04T05:02:19.342Z,79.00
2018-05-04T05:03:19.215Z,75.70
2018-05-04T05:04:19.095Z,79.80
2018-05-04T05:05:18.968Z,80.30
2018-05-04T05:06:18.838Z,80.40
2018-05-04T05:07:18.715Z,80.50
2018-05-04T05:08:18.588Z,78.20
2018-05-04T05:09:18.463Z,78.30
2018-05-04T05:10:18.335Z,79.20
2018-05-04T05:11:18.208Z,78.30
2018-05-04T05:12:18.087Z,80.50
2018-05-04T05:13:17.959Z,80.60
2018-05-04T05:14:17.836Z,83.20
2018-05-04T05:15:17.707Z,80.70
2018-05-04T05:16:17.585Z,80.30
2018-05-04T05:17:17.458Z,83.50
2018-05-04T05:18:17.333Z,78.80
2018-05-04T05:19:17.205Z,77.40
2018-05-04T05:20:17.080Z,70.00
2018-05-04T05:21:16.956Z,67.30
2018-05-04T05:22:16.830Z,69.10
2018-05-04T05:23:16.703Z,70.50
2018-05-04T05:24:16.578Z,73.00
2018-05-04T05:25:16.454Z,69.60
2018-05-04T05:26:16.329Z,69.10
2018-05-04T05:27:16.202Z,70.00
2018-05-04T05:28:16.077Z,67.20
2018-05-04T05:29:15.954Z,71.40
2018-05-04T05:30:15.827Z,67.10
2018-05-04T05:31:15.698Z,66.40
2018-05-04T05:32:15.576Z,65.70
2018-05-04T05:33:15.451Z,71.70
2018-05-04T05:34:15.323Z,71.80
2018-05-04T05:35:15.196Z,71.80
2018-05-04T05:36:15.074Z,76.10
2018-05-04T05:37:14.947Z,80.50
2018-05-04T05:38:14.823Z,77.10
2018-05-04T05:39:14.696Z,76.40
2018-05-04T05:40:14.567Z,75.30
2018-05-04T05:41:14.444Z,71.40
2018-05-04T05:42:14.317Z,77.20
2018-05-04T05:43:14.192Z,77.60
2018-05-04T05:44:14.066Z,78.40
2018-05-04T05:45:13.941Z,80.80
2018-05-04T05:46:13.815Z,78.60
2018-05-04T05:47:13.688Z,76.50
2018-05-04T05:48:13.563Z,76.40
2018-05-04T05:49:13.443Z,82.30
2018-05-04T05:50:13.312Z,75.50
2018-05-04T05:51:13.187Z,72.40
2018-05-04T05:52:13.060Z,72.00
2018-05-04T05:53:12.934Z,77.20
2018-05-04T05:54:12.809Z,81.10
2018-05-04T05:55:12.682Z,81.80
2018-05-04T05:56:12.557Z,79.50
2018-05-04T05:57:12.432Z,79.10
2018-05-04T05:58:12.305Z,84.60
2018-05-04T05:59:12.179Z,84.10
2018-05-04T06:00:12.056Z,85.60
2018-05-04T06:01:11.928Z,84.80
2018-05-04T06:02:11.805Z,85.10
2018-05-04T06:03:11.682Z,84.20
2018-05-04T06:04:11.552Z,78.40
2018-05-04T06:05:11.425Z,79.50
2018-05-04T06:06:11.298Z,81.60
2018-05-04T06:07:11.174Z,84.00
2018-05-04T06:08:11.111Z,85.50
2018-05-04T06:09:10.924Z,84.80
2018-05-04T06:10:10.800Z,86.80
2018-05-04T06:11:10.671Z,86.10
2018-05-04T06:12:10.543Z,84.40
2018-05-04T06:13:10.421Z,81.20
2018-05-04T06:14:10.295Z,82.80
2018-05-04T06:15:10.239Z,83.70
2018-05-04T06:16:10.045Z,81.70
2018-05-04T06:17:09.917Z,83.10
2018-05-04T06:18:09.790Z,80.00
2018-05-04T06:19:09.669Z,78.90
2018-05-04T06:20:09.542Z,80.40
2018-05-04T06:21:09.415Z,77.00
2018-05-04T06:22:09.289Z,74.00
2018-05-04T06:23:09.165Z,75.30
2018-05-04T06:24:09.042Z,75.00
2018-05-04T06:25:08.987Z,78.20
2018-05-04T06:26:08.788Z,77.70
2018-05-04T06:27:08.661Z,75.70
2018-05-04T06:28:08.536Z,74.00
2018-05-04T06:29:08.413Z,71.30
2018-05-04T06:30:08.285Z,76.60
2018-05-04T06:31:08.162Z,74.30
2018-05-04T06:32:08.033Z,74.80
2018-05-04T06:33:07.912Z,73.80
2018-05-04T06:34:07.785Z,72.20
2018-05-04T06:35:07.658Z,71.00
2018-05-04T06:36:07.534Z,71.10
2018-05-04T06:37:07.406Z,74.30
2018-05-04T06:38:07.282Z,72.10
2018-05-04T06:39:07.158Z,66.40
2018-05-04T06:40:07.033Z,64.80
2018-05-04T06:41:06.911Z,65.00
2018-05-04T06:42:06.784Z,67.30
2018-05-04T06:43:06.655Z,70.70
2018-05-04T06:44:06.528Z,70.80
2018-05-04T06:45:06.410Z,72.30
2018-05-04T06:46:06.280Z,67.00
2018-05-04T06:47:06.155Z,69.80
2018-05-04T06:48:06.030Z,69.30
2018-05-04T06:49:05.908Z,64.20
2018-05-04T06:50:05.780Z,69.00
2018-05-04T06:51:05.652Z,70.10
2018-05-04T06:52:05.529Z,67.80
2018-05-04T06:53:05.401Z,70.90
2018-05-04T06:54:05.278Z,67.50
2018-05-04T06:55:05.149Z,75.50
2018-05-04T06:56:05.026Z,75.10
2018-05-04T06:57:04.901Z,73.50
2018-05-04T06:58:04.778Z,75.10
2018-05-04T06:59:04.651Z,78.90
2018-05-04T07:00:04.523Z,81.10
2018-05-04T07:01:04.401Z,79.20
2018-05-04T07:02:04.274Z,82.10
2018-05-04T07:03:04.151Z,70.20
2018-05-04T07:04:04.026Z,74.80
2018-05-04T07:05:03.899Z,71.00
2018-05-04T07:06:03.774Z,70.80
2018-05-04T07:07:03.648Z,72.10
2018-05-04T07:08:03.520Z,70.10
2018-05-04T07:09:03.417Z,68.10
2018-05-04T07:10:03.271Z,74.10
2018-05-04T07:11:03.147Z,78.70
2018-05-04T07:12:03.023Z,75.20
2018-05-04T07:13:02.894Z,82.30
2018-05-04T07:14:02.771Z,84.70
2018-05-04T07:15:02.684Z,80.40
2018-05-04T07:16:02.521Z,75.30
2018-05-04T07:17:02.396Z,76.00
2018-05-04T07:18:02.267Z,77.60
2018-05-04T07:19:02.141Z,78.00
2018-05-04T07:20:02.020Z,84.70
2018-05-04T07:21:01.894Z,81.30
2018-05-04T07:22:01.777Z,71.90
2018-05-04T07:23:01.642Z,76.30
2018-05-04T07:24:01.517Z,76.60
2018-05-04T07:25:01.393Z,76.60
2018-05-04T07:26:01.264Z,73.10
2018-05-04T07:27:01.139Z,71.20
2018-05-04T07:28:01.014Z,71.30
2018-05-04T07:29:00.889Z,74.10
2018-05-04T07:30:00.764Z,70.30
2018-05-04T07:31:00.639Z,68.90
2018-05-04T07:32:00.510Z,102.90
2018-05-04T07:33:00.390Z,109.90
2018-05-04T07:34:00.271Z,69.90
2018-05-04T07:35:00.143Z,73.60
2018-05-04T07:36:00.041Z,77.30
2018-05-04T07:36:59.888Z,80.50
2018-05-04T07:37:59.761Z,76.90
2018-05-04T07:38:59.636Z,79.40
2018-05-04T07:39:59.509Z,74.00
2018-05-04T07:40:59.383Z,74.40
2018-05-04T07:41:59.260Z,73.00
2018-05-04T07:42:59.132Z,73.60
2018-05-04T07:43:59.015Z,66.80
2018-05-04T07:44:58.882Z,67.30
2018-05-04T07:45:58.758Z,67.70
2018-05-04T07:46:58.631Z,76.30
2018-05-04T07:47:58.504Z,77.70
2018-05-04T07:48:58.379Z,70.20
2018-05-04T07:49:58.254Z,74.80
2018-05-04T07:50:58.128Z,74.90
2018-05-04T07:51:58.006Z,72.10
2018-05-04T07:52:57.877Z,73.50
2018-05-04T07:53:57.755Z,67.40
2018-05-04T07:54:57.629Z,70.60
2018-05-04T07:55:57.503Z,73.20
2018-05-04T07:56:57.376Z,76.40
2018-05-04T07:57:57.251Z,73.90
2018-05-04T07:58:57.125Z,77.20
2018-05-04T07:59:57.004Z,75.10
2018-05-04T08:00:56.872Z,73.40
2018-05-04T08:01:56.750Z,73.70
2018-05-04T08:02:56.673Z,74.00
2018-05-04T08:03:56.498Z,70.50
2018-05-04T08:04:56.374Z,69.60
2018-05-04T08:05:56.249Z,71.40
2018-05-04T08:06:56.123Z,66.60
2018-05-04T08:07:55.996Z,62.30
2018-05-04T08:08:55.871Z,66.90
2018-05-04T08:09:55.746Z,63.30
2018-05-04T08:10:55.621Z,62.20
2018-05-04T08:11:55.496Z,61.50
2018-05-04T08:12:55.372Z,59.10
2018-05-04T08:13:55.247Z,59.50
2018-05-04T08:14:55.123Z,54.50
2018-05-04T08:15:54.997Z,56.00
2018-05-04T08:16:54.869Z,57.20
2018-05-04T08:17:54.744Z,57.80
2018-05-04T08:18:54.621Z,52.90
2018-05-04T08:19:54.496Z,52.20
2018-05-04T08:20:54.368Z,54.60
2018-05-04T08:21:54.245Z,56.90
2018-05-04T08:22:54.123Z,58.10
2018-05-04T08:23:53.994Z,56.50
2018-05-04T08:24:53.874Z,55.90
2018-05-04T08:25:53.747Z,56.60
2018-05-04T08:26:53.620Z,53.70
2018-05-04T08:27:53.498Z,52.90
2018-05-04T08:28:53.373Z,54.90
2018-05-04T08:29:53.245Z,51.80
2018-05-04T08:30:53.119Z,50.20
2018-05-04T08:31:52.996Z,52.80
2018-05-04T08:32:52.871Z,55.20
2018-05-04T08:33:52.765Z,55.00
2018-05-04T08:34:52.620Z,49.60
2018-05-04T08:35:52.499Z,48.40
2018-05-04T08:36:52.371Z,50.70
2018-05-04T08:37:52.248Z,49.10
2018-05-04T08:38:52.121Z,48.20
2018-05-04T08:39:52.000Z,49.90
2018-05-04T08:40:51.971Z,47.60
2018-05-04T08:41:51.749Z,51.80
2018-05-04T08:42:51.695Z,48.80
2018-05-04T08:43:51.498Z,49.20
2018-05-04T08:44:51.373Z,50.10
2018-05-04T08:45:51.248Z,51.00
2018-05-04T08:46:51.171Z,48.80
2018-05-04T08:47:50.999Z,46.50
2018-05-04T08:48:50.872Z,47.90
2018-05-04T08:49:50.749Z,46.40
2018-05-04T08:50:50.712Z,46.10
2018-05-04T08:51:50.499Z,46.30
2018-05-04T08:52:50.380Z,46.00
2018-05-04T08:53:50.319Z,45.70
2018-05-04T08:54:50.124Z,47.30
2018-05-04T08:55:50.001Z,47.30
2018-05-04T08:56:49.874Z,47.80
2018-05-04T08:57:49.756Z,49.30
2018-05-04T08:58:49.625Z,50.50
2018-05-04T08:59:49.503Z,52.50
2018-05-04T09:00:49.378Z,52.30
2018-05-04T09:01:49.251Z,53.30
2018-05-04T09:02:49.125Z,54.30
2018-05-04T09:03:49.001Z,54.90
2018-05-04T09:04:48.880Z,50.60
2018-05-04T09:05:48.754Z,50.60
2018-05-04T09:06:48.627Z,50.60
2018-05-04T09:07:48.503Z,49.30
2018-05-04T09:08:48.381Z,48.70
2018-05-04T09:09:48.255Z,47.20
2018-05-04T09:10:48.128Z,49.60
2018-05-04T09:11:48.006Z,47.30
2018-05-04T09:12:47.891Z,49.60
2018-05-04T09:13:47.758Z,47.10
2018-05-04T09:14:47.630Z,48.50
2018-05-04T09:15:47.510Z,47.70
2018-05-04T09:16:47.379Z,46.20
2018-05-04T09:17:47.253Z,49.20
2018-05-04T09:18:47.131Z,45.20
2018-05-04T09:19:47.035Z,43.00
2018-05-04T09:20:46.883Z,45.00
2018-05-04T09:21:46.758Z,44.00
2018-05-04T09:22:46.641Z,43.80
2018-05-04T09:23:46.509Z,44.50
2018-05-04T09:24:46.386Z,44.30
2018-05-04T09:25:46.260Z,45.30
2018-05-04T09:26:46.141Z,45.60
2018-05-04T09:27:46.012Z,42.00
2018-05-04T09:28:45.886Z,39.40
2018-05-04T09:29:45.765Z,40.20
2018-05-04T09:30:45.678Z,41.10
2018-05-04T09:31:45.513Z,41.50
2018-05-04T09:32:45.391Z,40.50
2018-05-04T09:33:45.266Z,39.40
2018-05-04T09:34:45.139Z,37.50
2018-05-04T09:35:45.019Z,37.50
2018-05-04T09:36:44.893Z,37.50
2018-05-04T09:37:44.770Z,37.50
2018-05-04T09:38:44.642Z,38.00
2018-05-04T09:39:44.518Z,38.30
2018-05-04T09:40:44.399Z,37.20
2018-05-04T09:41:44.272Z,38.00
2018-05-04T09:42:44.148Z,38.00
2018-05-04T09:43:44.105Z,36.70
2018-05-04T09:44:43.900Z,38.00
2018-05-04T09:45:43.776Z,37.20
2018-05-04T09:46:43.652Z,37.60
2018-05-04T09:47:43.526Z,37.70
2018-05-04T09:48:43.406Z,37.60
2018-05-04T09:49:43.278Z,37.30
2018-05-04T09:50:43.152Z,36.90
2018-05-04T09:51:43.031Z,36.00
2018-05-04T09:52:42.907Z,35.80
2018-05-04T09:53:42.783Z,36.40
2018-05-04T09:54:42.657Z,35.80
2018-05-04T09:55:42.533Z,34.50
2018-05-04T09:56:42.409Z,33.90
2018-05-04T09:57:42.285Z,33.60
2018-05-04T09:58:42.162Z,33.80
2018-05-04T09:59:42.042Z,35.20
2018-05-04T10:00:41.914Z,34.40
2018-05-04T10:01:41.814Z,32.90
2018-05-04T10:02:41.664Z,31.50
2018-05-04T10:03:41.544Z,32.60
2018-05-04T10:04:41.418Z,31.90
2018-05-04T10:05:41.295Z,32.90
2018-05-04T10:06:41.171Z,32.10
2018-05-04T10:07:41.045Z,32.30
2018-05-04T10:08:40.922Z,29.50
2018-05-04T10:09:40.799Z,30.60
2018-05-04T10:10:40.676Z,30.80
2018-05-04T10:11:40.553Z,30.00
2018-05-04T10:12:40.428Z,29.60
2018-05-04T10:13:40.306Z,29.60
2018-05-04T10:14:40.185Z,29.10
2018-05-04T10:15:40.062Z,28.60
2018-05-04T10:16:39.935Z,27.40
2018-05-04T10:17:39.816Z,27.90
2018-05-04T10:18:39.689Z,29.20
2018-05-04T10:19:39.570Z,27.70
2018-05-04T10:20:39.448Z,27.10
2018-05-04T10:21:39.325Z,27.00
2018-05-04T10:22:39.199Z,27.60
2018-05-04T10:23:39.080Z,25.60
2018-05-04T10:24:38.955Z,26.80
2018-05-04T10:25:38.836Z,27.00
2018-05-04T10:26:38.710Z,26.80
2018-05-04T10:27:38.590Z,25.50
2018-05-04T10:28:38.466Z,25.40
2018-05-04T10:29:38.346Z,24.10
2018-05-04T10:30:38.224Z,24.20
2018-05-04T10:31:38.104Z,25.40
2018-05-04T10:32:37.980Z,24.00
2018-05-04T10:33:37.926Z,21.90
2018-05-04T10:34:37.737Z,22.30
2018-05-04T10:35:37.612Z,21.10
2018-05-04T10:36:37.494Z,19.70
2018-05-04T10:37:37.370Z,18.80
2018-05-04T10:38:37.360Z,18.30
2018-05-04T10:39:37.129Z,16.80
2018-05-04T10:40:37.012Z,18.00
2018-05-04T10:41:36.884Z,19.10
2018-05-04T10:42:36.761Z,19.80
2018-05-04T10:43:36.637Z,18.80
2018-05-04T10:44:36.519Z,18.80
2018-05-04T10:45:36.395Z,18.10
2018-05-04T10:46:36.272Z,17.30
2018-05-04T10:47:36.152Z,17.40
2018-05-04T10:48:36.029Z,18.70
2018-05-04T10:49:35.906Z,19.10
2018-05-04T10:50:35.784Z,18.30
2018-05-04T10:51:35.662Z,18.30
2018-05-04T10:52:35.545Z,18.30
2018-05-04T10:53:35.422Z,18.30
2018-05-04T10:54:35.298Z,18.20
2018-05-04T10:55:35.176Z,18.40
2018-05-04T10:56:35.055Z,17.60
2018-05-04T10:57:34.933Z,18.20
2018-05-04T10:58:34.811Z,17.00
2018-05-04T10:59:34.690Z,16.60
2018-05-04T11:00:34.570Z,16.00
2018-05-04T11:01:34.445Z,16.30
2018-05-04T11:02:34.324Z,15.70
2018-05-04T11:03:34.205Z,15.50
2018-05-04T11:04:34.081Z,15.80
2018-05-04T11:05:33.959Z,15.70
2018-05-04T11:06:33.838Z,16.50
2018-05-04T11:07:33.716Z,14.60
2018-05-04T11:08:33.595Z,14.60
2018-05-04T11:09:33.476Z,13.70
2018-05-04T11:10:33.352Z,13.20
2018-05-04T11:11:33.231Z,13.90
2018-05-04T11:12:33.111Z,13.30
2018-05-04T11:13:32.991Z,13.70
2018-05-04T11:14:32.867Z,12.70
2018-05-04T11:15:32.746Z,13.50
2018-05-04T11:16:32.625Z,12.70
2018-05-04T11:17:32.506Z,13.00
2018-05-04T11:18:32.385Z,12.80
2018-05-04T11:19:32.295Z,12.50
2018-05-04T11:20:32.141Z,12.20
2018-05-04T11:21:32.020Z,11.90
2018-05-04T11:22:31.896Z,12.30
2018-05-04T11:23:31.777Z,12.70
2018-05-04T11:24:31.655Z,12.20
2018-05-04T11:25:31.586Z,12.00
2018-05-04T11:26:31.417Z,12.30
2018-05-04T11:27:31.297Z,11.50
2018-05-04T11:28:31.174Z,12.60
2018-05-04T11:29:31.051Z,13.10
2018-05-04T11:30:30.931Z,12.50
2018-05-04T11:31:30.813Z,11.90
2018-05-04T11:32:30.694Z,13.10
2018-05-04T11:33:30.571Z,13.80
2018-05-04T11:34:30.450Z,13.90
2018-05-04T11:35:30.327Z,13.10
2018-05-04T11:36:30.208Z,11.60
2018-05-04T11:37:30.090Z,11.00
2018-05-04T11:38:29.965Z,10.30
2018-05-04T11:39:29.845Z,10.60
2018-05-04T11:40:29.724Z,10.10
2018-05-04T11:41:29.604Z,9.70
2018-05-04T11:42:29.483Z,8.80
2018-05-04T11:43:29.363Z,9.10
2018-05-04T11:44:29.244Z,10.30
2018-05-04T11:45:29.124Z,9.20
2018-05-04T11:46:29.005Z,9.40
2018-05-04T11:47:28.886Z,10.10
2018-05-04T11:48:28.762Z,9.40
2018-05-04T11:49:28.681Z,9.90
2018-05-04T11:50:28.520Z,10.20
2018-05-04T11:51:28.401Z,9.70
2018-05-04T11:52:28.280Z,9.80
2018-05-04T11:53:28.161Z,10.10
2018-05-04T11:54:28.039Z,9.40
2018-05-04T11:55:27.919Z,10.60
2018-05-04T11:56:27.804Z,10.10
2018-05-04T11:57:27.689Z,10.10
2018-05-04T11:58:27.556Z,7.50
2018-05-04T11:59:27.439Z,7.50
2018-05-04T12:00:27.319Z,7.80
2018-05-04T12:01:27.200Z,7.90
2018-05-04T12:02:27.081Z,8.20
2018-05-04T12:03:26.955Z,8.50
2018-05-04T12:04:26.835Z,8.10
2018-05-04T12:05:26.727Z,8.50
2018-05-04T12:06:26.594Z,9.90
2018-05-04T12:07:26.476Z,9.00
2018-05-04T12:08:26.354Z,8.90
2018-05-04T12:09:26.237Z,8.60
2018-05-04T12:10:26.115Z,8.90
2018-05-04T12:11:25.993Z,7.90
2018-05-04T12:12:25.871Z,9.00
2018-05-04T12:13:25.751Z,11.40
2018-05-04T12:14:25.665Z,10.10
2018-05-04T12:15:25.512Z,9.80
2018-05-04T12:16:25.391Z,9.60
2018-05-04T12:17:25.268Z,9.10
2018-05-04T12:18:25.150Z,9.60
2018-05-04T12:19:25.031Z,10.00
2018-05-04T12:20:24.909Z,9.50
2018-05-04T12:21:24.789Z,10.20
2018-05-04T12:22:24.669Z,9.70
2018-05-04T12:23:24.545Z,10.70
2018-05-04T12:24:24.427Z,10.10
2018-05-04T12:25:24.304Z,9.70
2018-05-04T12:26:24.183Z,9.60
2018-05-04T12:27:24.065Z,11.00
2018-05-04T12:28:23.943Z,10.50
2018-05-04T12:29:23.829Z,9.90
2018-05-04T12:30:23.706Z,10.00
2018-05-04T12:31:23.588Z,10.50
2018-05-04T12:32:23.469Z,10.20
2018-05-04T12:33:23.345Z,10.70
2018-05-04T12:34:23.227Z,9.60
2018-05-04T12:35:23.113Z,8.30
2018-05-04T12:36:22.989Z,8.40
2018-05-04T12:37:22.871Z,8.60
2018-05-04T12:38:22.779Z,7.90
2018-05-04T12:39:22.631Z,7.60
2018-05-04T12:40:22.513Z,9.50
2018-05-04T12:41:22.392Z,10.50
2018-05-04T12:42:22.273Z,10.80
2018-05-04T12:43:22.154Z,10.30
2018-05-04T12:44:22.034Z,10.30
2018-05-04T12:45:21.919Z,10.00
2018-05-04T12:46:21.798Z,10.70
2018-05-04T12:47:21.678Z,9.50
2018-05-04T12:48:21.559Z,9.60
2018-05-04T12:49:21.443Z,8.60
2018-05-04T12:50:21.323Z,8.20
2018-05-04T12:51:21.205Z,8.70
2018-05-04T12:52:21.084Z,8.50
2018-05-04T12:53:20.966Z,7.60